Time;durP1;ratioP1;P1;durP2;ratioP2;P2;SDS_P1;SDS_P2;PMS_P1;PMS_P2;Temp;Humidity;BMP_temperature;BMP_pressure;BME280_temperature;BME280_humidity;BME280_pressure;Samples;Min_cycle;Max_cycle;Signal;HPM_P1;HPM_P2
2023/06/25 00:01:29;;;;;;;11.93;10.10;;;;;;;;;;5046658;28;20040;-70
2023/06/25 00:03:55;;;;;;;12.63;11.05;;;;;;;;;;5049050;28;20126;-71
2023/06/25 00:06:22;;;;;;;11.65;10.35;;;;;;;;;;5050361;28;20386;-71
2023/06/25 00:08:48;;;;;;;11.90;10.68;;;;;;;;;;5049857;28;20052;-70
2023/06/25 00:11:14;;;;;;;12.95;11.55;;;;;;;;;;5052059;28;20080;-71
2023/06/25 00:13:40;;;;;;;12.93;10.95;;;;;;;;;;5052870;28;20036;-71
2023/06/25 00:16:07;;;;;;;12.73;11.43;;;;;;;;;;5049417;28;20160;-70
2023/06/25 00:18:33;;;;;;;12.68;11.25;;;;;;;;;;5048556;28;20051;-70
2023/06/25 00:21:00;;;;;;;17.92;11.85;;;;;;;;;;5045598;28;20048;-70
2023/06/25 00:23:26;;;;;;;12.75;11.45;;;;;;;;;;5050128;28;21038;-70
2023/06/25 00:25:52;;;;;;;12.30;11.10;;;;;;;;;;5048362;28;20041;-70
2023/06/25 00:28:18;;;;;;;15.48;11.80;;;;;;;;;;5048227;28;20036;-71
2023/06/25 00:30:44;;;;;;;13.32;11.27;;;;;;;;;;5049657;28;20051;-71
2023/06/25 00:33:10;;;;;;;13.45;11.82;;;;;;;;;;5048001;28;20761;-70
2023/06/25 00:35:44;;;;;;;12.95;10.55;;;;;;;;;;5046549;28;20051;-70
2023/06/25 00:38:10;;;;;;;11.32;10.05;;;;;;;;;;5048128;28;20048;-70
2023/06/25 00:40:36;;;;;;;13.90;9.88;;;;;;;;;;5049783;28;20535;-70
2023/06/25 00:43:04;;;;;;;12.85;10.00;;;;;;;;;;5047237;28;20377;-70
2023/06/25 00:45:31;;;;;;;15.68;10.50;;;;;;;;;;5045273;28;20527;-70
2023/06/25 00:47:58;;;;;;;15.82;10.20;;;;;;;;;;5047846;28;20068;-70
2023/06/25 00:50:24;;;;;;;13.00;10.75;;;;;;;;;;5047177;28;20567;-70
2023/06/25 00:52:51;;;;;;;12.60;9.60;;;;;;;;;;5049142;28;20809;-70
2023/06/25 00:55:17;;;;;;;11.77;9.38;;;;;;;;;;5044923;28;20056;-72
2023/06/25 00:57:43;;;;;;;14.63;9.57;;;;;;;;;;5049667;28;20079;-71
2023/06/25 01:00:14;;;;;;;11.52;8.68;;;;;;;;;;5048949;28;20047;-71
2023/06/25 01:02:43;;;;;;;10.80;9.05;;;;;;;;;;5046446;28;20059;-71
2023/06/25 01:05:20;;;;;;;10.77;8.07;;;;;;;;;;5047977;28;20060;-71
2023/06/25 01:07:47;;;;;;;9.90;8.90;;;;;;;;;;5047106;28;20740;-71
2023/06/25 01:10:13;;;;;;;10.95;9.32;;;;;;;;;;5049392;28;20048;-70
2023/06/25 01:12:42;;;;;;;9.88;8.88;;;;;;;;;;5047208;28;20404;-71
2023/06/25 01:15:11;;;;;;;10.65;8.70;;;;;;;;;;5047722;28;20053;-71
2023/06/25 01:17:39;;;;;;;9.30;8.32;;;;;;;;;;5046542;28;20188;-71
2023/06/25 01:20:09;;;;;;;12.23;8.57;;;;;;;;;;5047837;28;20055;-71
2023/06/25 01:22:35;;;;;;;12.07;9.23;;;;;;;;;;5047288;28;20073;-71
2023/06/25 01:25:01;;;;;;;11.35;8.88;;;;;;;;;;5048359;28;20097;-70
2023/06/25 01:27:27;;;;;;;12.50;9.15;;;;;;;;;;5047717;28;20101;-70
2023/06/25 01:29:55;;;;;;;12.98;9.13;;;;;;;;;;5050030;28;20036;-71
2023/06/25 01:32:23;;;;;;;10.63;9.63;;;;;;;;;;5043631;28;20465;-71
2023/06/25 01:34:50;;;;;;;11.25;9.65;;;;;;;;;;5042677;28;20534;-70
2023/06/25 01:37:19;;;;;;;12.43;9.57;;;;;;;;;;5048909;28;20059;-70
2023/06/25 01:39:49;;;;;;;10.20;8.90;;;;;;;;;;5048403;28;20044;-70
2023/06/25 01:42:15;;;;;;;11.93;9.55;;;;;;;;;;5047089;28;20607;-70
2023/06/25 01:44:41;;;;;;;11.18;9.98;;;;;;;;;;5048564;28;20048;-70
2023/06/25 01:47:07;;;;;;;10.98;8.82;;;;;;;;;;5048125;28;20048;-70
2023/06/25 01:49:33;;;;;;;11.65;9.35;;;;;;;;;;5047543;28;20044;-71
2023/06/25 01:52:01;;;;;;;11.50;10.38;;;;;;;;;;5049159;28;20074;-71
2023/06/25 01:54:27;;;;;;;13.02;8.65;;;;;;;;;;5044061;28;20500;-71
2023/06/25 01:56:53;;;;;;;8.93;7.78;;;;;;;;;;5048794;28;20552;-71
2023/06/25 01:59:19;;;;;;;8.50;7.28;;;;;;;;;;5047240;28;20135;-71
2023/06/25 02:01:45;;;;;;;10.52;8.30;;;;;;;;;;5024406;28;20040;-70
2023/06/25 02:04:11;;;;;;;10.40;8.20;;;;;;;;;;5047276;28;20048;-70
2023/06/25 02:06:37;;;;;;;11.25;10.15;;;;;;;;;;5046795;28;20119;-70
2023/06/25 02:09:03;;;;;;;14.20;10.60;;;;;;;;;;5044228;28;20044;-71
2023/06/25 02:11:29;;;;;;;15.23;10.82;;;;;;;;;;5047846;28;20076;-71
2023/06/25 02:13:55;;;;;;;11.50;10.25;;;;;;;;;;5048086;28;20185;-71
2023/06/25 02:16:21;;;;;;;13.45;12.05;;;;;;;;;;5046772;28;20032;-70
2023/06/25 02:18:47;;;;;;;15.82;12.55;;;;;;;;;;5047521;28;20052;-71
2023/06/25 02:21:14;;;;;;;13.95;11.25;;;;;;;;;;5046662;28;20043;-71
2023/06/25 02:23:40;;;;;;;16.60;12.15;;;;;;;;;;5010578;28;20047;-70
2023/06/25 02:26:06;;;;;;;13.32;10.93;;;;;;;;;;5046957;28;20144;-70
2023/06/25 02:28:32;;;;;;;14.00;11.20;;;;;;;;;;5045616;28;20048;-71
2023/06/25 02:30:58;;;;;;;11.35;9.90;;;;;;;;;;5046800;28;20868;-70
2023/06/25 02:33:24;;;;;;;13.52;10.52;;;;;;;;;;5049418;28;20047;-70
2023/06/25 02:35:50;;;;;;;13.43;11.18;;;;;;;;;;5045739;28;20048;-70
2023/06/25 02:38:16;;;;;;;14.75;11.57;;;;;;;;;;5047204;28;20110;-70
2023/06/25 02:40:43;;;;;;;12.18;10.77;;;;;;;;;;5046320;28;20127;-71
2023/06/25 02:43:09;;;;;;;15.18;10.55;;;;;;;;;;5047015;28;20519;-71
2023/06/25 02:45:35;;;;;;;11.98;10.77;;;;;;;;;;5046481;28;20051;-71
2023/06/25 02:48:01;;;;;;;13.48;12.13;;;;;;;;;;5044775;28;20045;-70
2023/06/25 02:50:27;;;;;;;15.13;11.15;;;;;;;;;;5047125;28;20048;-70
2023/06/25 02:52:53;;;;;;;13.70;10.73;;;;;;;;;;5046861;28;20592;-71
2023/06/25 02:55:19;;;;;;;13.98;10.43;;;;;;;;;;5040601;28;20521;-71
2023/06/25 02:57:45;;;;;;;13.70;10.95;;;;;;;;;;5045448;28;20097;-71
2023/06/25 03:00:11;;;;;;;16.50;11.20;;;;;;;;;;5044766;28;20171;-71
2023/06/25 03:02:38;;;;;;;13.38;11.32;;;;;;;;;;5045381;28;20070;-71
2023/06/25 03:05:04;;;;;;;14.20;11.32;;;;;;;;;;5047009;28;20044;-70
2023/06/25 03:07:30;;;;;;;17.65;11.93;;;;;;;;;;5045942;28;20052;-71
2023/06/25 03:09:56;;;;;;;12.70;11.32;;;;;;;;;;5044803;28;20144;-71
2023/06/25 03:12:22;;;;;;;15.73;11.85;;;;;;;;;;5045387;28;20048;-70
2023/06/25 03:14:48;;;;;;;14.32;11.00;;;;;;;;;;5045955;28;20041;-70
2023/06/25 03:17:15;;;;;;;13.43;11.80;;;;;;;;;;5045355;28;20043;-70
2023/06/25 03:19:41;;;;;;;13.90;11.45;;;;;;;;;;5045923;28;20660;-70
2023/06/25 03:22:07;;;;;;;13.75;12.10;;;;;;;;;;5048905;28;20068;-70
2023/06/25 03:24:33;;;;;;;14.48;11.82;;;;;;;;;;5050270;28;20060;-70
2023/06/25 03:26:59;;;;;;;13.05;11.73;;;;;;;;;;5049876;28;20503;-70
2023/06/25 03:29:25;;;;;;;14.02;11.52;;;;;;;;;;5045338;28;20048;-70
2023/06/25 03:31:51;;;;;;;13.63;11.55;;;;;;;;;;5048829;28;20040;-70
2023/06/25 03:34:17;;;;;;;12.82;10.00;;;;;;;;;;5050221;28;20492;-70
2023/06/25 03:36:43;;;;;;;16.55;13.48;;;;;;;;;;5048206;28;20102;-71
2023/06/25 03:39:09;;;;;;;18.48;13.60;;;;;;;;;;5049848;28;20040;-71
2023/06/25 03:41:35;;;;;;;16.20;13.15;;;;;;;;;;5046843;28;20032;-71
2023/06/25 03:44:01;;;;;;;20.30;12.88;;;;;;;;;;5047846;28;20047;-70
2023/06/25 03:46:27;;;;;;;15.57;12.25;;;;;;;;;;5050535;28;20089;-71
2023/06/25 03:48:53;;;;;;;15.80;13.10;;;;;;;;;;5048723;28;20400;-71
2023/06/25 03:51:19;;;;;;;16.77;11.90;;;;;;;;;;5051974;28;20032;-70
2023/06/25 03:53:46;;;;;;;14.00;12.48;;;;;;;;;;5053865;28;20179;-71
2023/06/25 03:56:12;;;;;;;16.67;13.00;;;;;;;;;;5059039;28;20047;-71
2023/06/25 03:58:38;;;;;;;21.10;11.82;;;;;;;;;;5064345;28;20032;-70
2023/06/25 04:01:04;;;;;;;15.25;12.25;;;;;;;;;;5063057;28;20101;-70
2023/06/25 04:03:30;;;;;;;12.45;10.85;;;;;;;;;;5054358;28;20044;-69
2023/06/25 04:05:56;;;;;;;12.63;11.05;;;;;;;;;;5056174;28;20044;-72
2023/06/25 04:08:22;;;;;;;17.20;12.18;;;;;;;;;;5054182;28;20056;-70
2023/06/25 04:10:48;;;;;;;13.32;10.55;;;;;;;;;;5048366;28;20054;-71
2023/06/25 04:13:14;;;;;;;18.73;10.73;;;;;;;;;;5048515;28;20480;-70
2023/06/25 04:15:40;;;;;;;12.85;9.90;;;;;;;;;;5049892;28;20051;-70
2023/06/25 04:18:06;;;;;;;14.57;10.75;;;;;;;;;;5048917;28;20185;-70
2023/06/25 04:20:32;;;;;;;15.13;10.98;;;;;;;;;;5047212;28;20662;-70
2023/06/25 04:23:00;;;;;;;19.75;10.40;;;;;;;;;;5049593;28;20135;-70
2023/06/25 04:25:27;;;;;;;15.50;11.43;;;;;;;;;;5049936;28;20040;-71
2023/06/25 04:27:54;;;;;;;15.60;10.65;;;;;;;;;;5049239;28;20071;-70
2023/06/25 04:30:20;;;;;;;12.40;9.18;;;;;;;;;;5047944;28;20060;-70
2023/06/25 04:32:49;;;;;;;12.43;9.07;;;;;;;;;;5046929;28;20526;-70
2023/06/25 04:35:15;;;;;;;16.90;9.98;;;;;;;;;;5046761;28;20163;-70
2023/06/25 04:37:41;;;;;;;12.55;9.70;;;;;;;;;;5048207;28;20040;-70
2023/06/25 04:40:08;;;;;;;11.68;9.90;;;;;;;;;;5046519;28;20028;-70
2023/06/25 04:42:34;;;;;;;12.00;9.95;;;;;;;;;;5048434;28;20045;-71
2023/06/25 04:45:00;;;;;;;12.43;9.15;;;;;;;;;;5048938;28;20119;-71
2023/06/25 04:47:26;;;;;;;13.38;10.63;;;;;;;;;;5047817;28;20040;-71
2023/06/25 04:49:52;;;;;;;12.80;9.48;;;;;;;;;;5046379;28;20046;-70
2023/06/25 04:52:19;;;;;;;12.80;8.57;;;;;;;;;;5048264;28;20068;-71
2023/06/25 04:54:46;;;;;;;11.75;8.50;;;;;;;;;;5030733;28;20098;-71
2023/06/25 04:57:13;;;;;;;18.30;8.18;;;;;;;;;;5047120;28;20051;-71
2023/06/25 04:59:39;;;;;;;10.93;9.20;;;;;;;;;;5047454;28;20044;-71
2023/06/25 05:02:06;;;;;;;12.25;9.10;;;;;;;;;;5047550;28;20071;-70
2023/06/25 05:04:32;;;;;;;15.30;10.30;;;;;;;;;;5047576;28;20044;-70
2023/06/25 05:06:58;;;;;;;11.55;9.05;;;;;;;;;;5046797;28;20040;-71
2023/06/25 05:09:24;;;;;;;11.63;8.82;;;;;;;;;;5049396;28;20033;-70
2023/06/25 05:11:50;;;;;;;12.82;8.55;;;;;;;;;;5043841;28;20896;-70
2023/06/25 05:14:17;;;;;;;10.98;8.55;;;;;;;;;;5050853;28;20037;-70
2023/06/25 05:16:43;;;;;;;12.82;8.63;;;;;;;;;;5051578;28;20055;-70
2023/06/25 05:19:09;;;;;;;13.05;9.27;;;;;;;;;;5050436;28;20041;-70
2023/06/25 05:21:35;;;;;;;11.52;10.15;;;;;;;;;;5049449;28;20567;-70
2023/06/25 05:24:03;;;;;;;14.35;9.95;;;;;;;;;;5051987;28;20033;-70
2023/06/25 05:26:29;;;;;;;10.77;9.35;;;;;;;;;;5049927;28;20116;-70
2023/06/25 05:28:56;;;;;;;14.18;9.57;;;;;;;;;;5051736;28;20045;-70
2023/06/25 05:31:22;;;;;;;13.10;10.10;;;;;;;;;;5052459;28;20036;-70
2023/06/25 05:33:48;;;;;;;16.02;10.20;;;;;;;;;;5049967;28;20511;-70
2023/06/25 05:36:14;;;;;;;10.82;9.77;;;;;;;;;;5048933;28;20166;-71
2023/06/25 05:38:40;;;;;;;12.32;9.88;;;;;;;;;;5048286;28;20156;-71
2023/06/25 05:41:07;;;;;;;11.65;9.40;;;;;;;;;;5046388;28;20052;-70
2023/06/25 05:43:33;;;;;;;12.80;9.90;;;;;;;;;;5046084;28;20500;-70
2023/06/25 05:45:59;;;;;;;12.38;8.90;;;;;;;;;;5047743;28;20488;-71
2023/06/25 05:48:25;;;;;;;10.05;9.05;;;;;;;;;;5048057;28;20036;-71
2023/06/25 05:50:52;;;;;;;10.50;8.05;;;;;;;;;;5045380;28;20043;-71
2023/06/25 05:53:18;;;;;;;10.85;8.90;;;;;;;;;;5046757;28;20055;-71
2023/06/25 05:55:45;;;;;;;10.50;8.25;;;;;;;;;;5046130;28;20220;-70
2023/06/25 05:58:11;;;;;;;15.38;8.77;;;;;;;;;;5046713;28;20048;-71
2023/06/25 06:00:37;;;;;;;10.07;7.68;;;;;;;;;;5046581;28;20082;-70
2023/06/25 06:03:03;;;;;;;9.90;8.63;;;;;;;;;;5046616;28;20071;-70
2023/06/25 06:05:29;;;;;;;15.32;8.90;;;;;;;;;;5047670;28;20040;-70
2023/06/25 06:07:55;;;;;;;8.88;7.97;;;;;;;;;;5047844;28;20055;-70
2023/06/25 06:10:21;;;;;;;9.90;8.02;;;;;;;;;;5043232;28;21605;-70
2023/06/25 06:12:47;;;;;;;10.55;8.20;;;;;;;;;;5046157;28;20051;-70
2023/06/25 06:15:13;;;;;;;8.73;7.93;;;;;;;;;;5048102;28;20049;-70
2023/06/25 06:17:39;;;;;;;11.80;7.55;;;;;;;;;;5047922;28;20047;-71
2023/06/25 06:20:06;;;;;;;8.27;7.43;;;;;;;;;;5047851;28;20138;-71
2023/06/25 06:22:32;;;;;;;8.65;7.72;;;;;;;;;;5044516;28;22801;-70
2023/06/25 06:24:58;;;;;;;11.10;7.15;;;;;;;;;;5045379;28;20121;-70
2023/06/25 06:27:24;;;;;;;8.93;7.63;;;;;;;;;;5047431;28;20049;-70
2023/06/25 06:29:50;;;;;;;11.10;8.30;;;;;;;;;;5048302;28;20106;-70
2023/06/25 06:32:16;;;;;;;11.18;7.88;;;;;;;;;;5047094;28;20136;-71
2023/06/25 06:34:42;;;;;;;11.50;7.78;;;;;;;;;;5047155;28;20044;-70
2023/06/25 06:37:08;;;;;;;10.07;7.72;;;;;;;;;;5048796;28;20547;-71
2023/06/25 06:39:34;;;;;;;8.93;8.02;;;;;;;;;;5052840;28;20082;-71
2023/06/25 06:42:00;;;;;;;8.43;7.60;;;;;;;;;;5049100;28;20508;-70
2023/06/25 06:44:26;;;;;;;10.55;7.88;;;;;;;;;;5047561;28;20054;-70
2023/06/25 06:46:52;;;;;;;10.48;7.35;;;;;;;;;;5051357;28;20088;-70
2023/06/25 06:49:19;;;;;;;9.63;8.55;;;;;;;;;;5049297;28;20440;-70
2023/06/25 06:51:45;;;;;;;11.10;7.78;;;;;;;;;;5050672;28;20641;-70
2023/06/25 06:54:11;;;;;;;13.23;9.07;;;;;;;;;;5052528;28;20061;-71
2023/06/25 06:56:38;;;;;;;10.52;8.75;;;;;;;;;;5054736;28;20048;-70
2023/06/25 06:59:05;;;;;;;14.10;9.63;;;;;;;;;;5050725;28;20819;-70
2023/06/25 07:01:31;;;;;;;13.38;10.55;;;;;;;;;;5051690;28;20557;-70
2023/06/25 07:03:57;;;;;;;14.27;10.20;;;;;;;;;;5050027;28;20028;-70
2023/06/25 07:06:23;;;;;;;19.88;10.77;;;;;;;;;;5048774;28;20289;-71
2023/06/25 07:08:49;;;;;;;15.52;11.00;;;;;;;;;;5049230;28;20036;-70
2023/06/25 07:11:18;;;;;;;16.55;12.07;;;;;;;;;;5050383;28;20974;-70
2023/06/25 07:13:44;;;;;;;15.00;11.45;;;;;;;;;;5051463;28;20051;-71
2023/06/25 07:16:10;;;;;;;13.93;11.95;;;;;;;;;;5049883;28;20040;-70
2023/06/25 07:18:37;;;;;;;15.65;11.93;;;;;;;;;;5046758;28;20040;-70
2023/06/25 07:21:03;;;;;;;18.25;11.95;;;;;;;;;;5050720;28;21926;-70
2023/06/25 07:23:29;;;;;;;16.15;12.48;;;;;;;;;;5047208;28;20051;-70
2023/06/25 07:25:55;;;;;;;17.00;12.77;;;;;;;;;;5050314;28;20044;-71
2023/06/25 07:28:21;;;;;;;15.88;13.32;;;;;;;;;;5048894;28;20103;-70
2023/06/25 07:30:48;;;;;;;15.88;12.50;;;;;;;;;;5051930;28;20044;-70
2023/06/25 07:33:14;;;;;;;17.80;11.93;;;;;;;;;;5047492;28;20044;-72
2023/06/25 07:35:40;;;;;;;16.48;13.50;;;;;;;;;;5050296;28;20036;-70
2023/06/25 07:38:06;;;;;;;17.10;13.25;;;;;;;;;;5048422;28;20066;-70
2023/06/25 07:40:32;;;;;;;19.00;12.73;;;;;;;;;;5047265;28;20044;-70
2023/06/25 07:42:58;;;;;;;17.10;12.27;;;;;;;;;;5049352;28;20052;-70
2023/06/25 07:45:24;;;;;;;15.82;12.05;;;;;;;;;;5047412;28;20053;-70
2023/06/25 07:47:51;;;;;;;23.10;13.20;;;;;;;;;;5044288;28;20044;-70
2023/06/25 07:50:17;;;;;;;14.90;12.23;;;;;;;;;;5051324;28;20147;-69
2023/06/25 07:52:43;;;;;;;16.25;12.25;;;;;;;;;;5064134;28;20060;-71
2023/06/25 07:55:09;;;;;;;13.80;11.32;;;;;;;;;;5064020;28;20048;-70
2023/06/25 07:57:35;;;;;;;19.38;12.82;;;;;;;;;;5052645;28;20044;-70
2023/06/25 08:00:01;;;;;;;14.35;12.77;;;;;;;;;;5041493;28;20036;-70
2023/06/25 08:02:27;;;;;;;18.17;13.20;;;;;;;;;;5047017;28;20265;-71
2023/06/25 08:04:53;;;;;;;14.68;11.95;;;;;;;;;;5046790;28;20043;-70
2023/06/25 08:07:19;;;;;;;17.35;12.20;;;;;;;;;;5043966;28;21171;-70
2023/06/25 08:09:46;;;;;;;19.10;12.50;;;;;;;;;;5040797;28;20040;-71
2023/06/25 08:12:14;;;;;;;16.30;12.43;;;;;;;;;;5046865;28;20044;-70
2023/06/25 08:14:40;;;;;;;13.85;12.40;;;;;;;;;;5046517;28;20056;-71
2023/06/25 08:17:06;;;;;;;17.23;13.63;;;;;;;;;;5044765;28;20059;-71
2023/06/25 08:19:33;;;;;;;12.20;10.90;;;;;;;;;;5042101;28;20075;-71
2023/06/25 08:21:59;;;;;;;18.77;12.23;;;;;;;;;;5046154;28;20037;-71
2023/06/25 08:24:25;;;;;;;13.95;11.98;;;;;;;;;;5045598;28;20056;-70
2023/06/25 08:26:51;;;;;;;15.82;11.73;;;;;;;;;;5042434;28;20048;-70
2023/06/25 08:29:17;;;;;;;12.70;11.40;;;;;;;;;;5045998;28;20052;-70
2023/06/25 08:31:43;;;;;;;14.63;12.63;;;;;;;;;;5044223;28;20044;-70
2023/06/25 08:34:09;;;;;;;15.05;11.73;;;;;;;;;;5039579;28;20040;-71
2023/06/25 08:36:36;;;;;;;16.60;12.25;;;;;;;;;;5044025;28;20071;-70
2023/06/25 08:39:02;;;;;;;14.32;12.20;;;;;;;;;;5044887;28;20049;-71
2023/06/25 08:41:29;;;;;;;19.73;12.90;;;;;;;;;;5044391;28;20044;-71
2023/06/25 08:43:55;;;;;;;15.00;12.60;;;;;;;;;;5040902;28;20139;-70
2023/06/25 08:46:23;;;;;;;16.30;12.68;;;;;;;;;;5042822;28;22137;-71
2023/06/25 08:48:51;;;;;;;16.42;11.05;;;;;;;;;;5042525;28;20123;-69
2023/06/25 08:51:21;;;;;;;16.75;12.52;;;;;;;;;;5045416;28;20095;-71
2023/06/25 08:53:47;;;;;;;15.77;12.60;;;;;;;;;;5044243;28;20102;-71
2023/06/25 08:56:19;;;;;;;12.23;11.00;;;;;;;;;;5043592;28;20044;-70
2023/06/25 08:58:45;;;;;;;15.43;11.25;;;;;;;;;;5042993;28;20123;-69
2023/06/25 09:01:12;;;;;;;12.52;11.30;;;;;;;;;;5042002;28;20032;-70
2023/06/25 09:03:39;;;;;;;13.73;12.32;;;;;;;;;;5041725;28;20052;-69
2023/06/25 09:06:11;;;;;;;14.30;12.15;;;;;;;;;;5041650;28;20428;-70
2023/06/25 09:08:40;;;;;;;14.55;11.25;;;;;;;;;;5045184;28;20051;-69
2023/06/25 09:11:06;;;;;;;14.52;11.63;;;;;;;;;;5043441;28;20051;-69
2023/06/25 09:13:32;;;;;;;14.88;10.85;;;;;;;;;;5044795;28;21067;-69
2023/06/25 09:16:02;;;;;;;9.52;8.63;;;;;;;;;;5044080;28;20044;-70
2023/06/25 09:18:31;;;;;;;9.82;8.82;;;;;;;;;;5044588;28;20036;-70
2023/06/25 09:21:05;;;;;;;11.15;8.70;;;;;;;;;;5041607;28;20045;-70
2023/06/25 09:23:31;;;;;;;12.00;8.10;;;;;;;;;;5043126;28;20693;-69
2023/06/25 09:25:58;;;;;;;9.70;8.70;;;;;;;;;;5038776;28;20047;-70
2023/06/25 09:28:25;;;;;;;11.55;10.38;;;;;;;;;;5041229;28;20081;-70
2023/06/25 09:30:55;;;;;;;9.35;8.50;;;;;;;;;;5045037;28;22022;-69
2023/06/25 09:33:21;;;;;;;9.10;8.20;;;;;;;;;;5043623;28;20053;-69
2023/06/25 09:35:47;;;;;;;7.97;7.18;;;;;;;;;;5041056;28;20075;-69
2023/06/25 09:38:13;;;;;;;8.43;7.10;;;;;;;;;;5043774;28;20044;-69
2023/06/25 09:40:39;;;;;;;15.25;9.63;;;;;;;;;;5042533;28;20048;-69
2023/06/25 09:43:06;;;;;;;9.07;8.07;;;;;;;;;;5043560;28;20055;-70
2023/06/25 09:45:33;;;;;;;9.05;7.57;;;;;;;;;;5043979;28;20055;-69
2023/06/25 09:47:59;;;;;;;7.82;6.70;;;;;;;;;;5040576;28;20059;-69
2023/06/25 09:50:35;;;;;;;9.32;8.30;;;;;;;;;;5039054;28;20076;-69
2023/06/25 09:53:03;;;;;;;11.50;7.97;;;;;;;;;;5042581;28;20469;-70
2023/06/25 09:55:30;;;;;;;8.60;7.25;;;;;;;;;;5046192;28;21217;-70
2023/06/25 09:57:56;;;;;;;9.52;7.53;;;;;;;;;;5044579;28;20047;-70
2023/06/25 10:00:24;;;;;;;8.07;5.30;;;;;;;;;;5045240;28;20112;-70
2023/06/25 10:02:52;;;;;;;6.63;6.03;;;;;;;;;;5043970;28;20550;-70
2023/06/25 10:05:18;;;;;;;8.38;5.88;;;;;;;;;;5043038;28;20044;-70
2023/06/25 10:07:44;;;;;;;6.82;5.57;;;;;;;;;;5046335;28;20053;-70
2023/06/25 10:10:21;;;;;;;7.45;5.80;;;;;;;;;;5043980;28;20048;-70
2023/06/25 10:12:49;;;;;;;7.78;5.53;;;;;;;;;;5041132;28;20134;-70
2023/06/25 10:15:15;;;;;;;7.93;5.40;;;;;;;;;;5042837;28;20048;-70
2023/06/25 10:17:51;;;;;;;8.65;6.07;;;;;;;;;;5046460;28;20037;-70
2023/06/25 10:20:25;;;;;;;7.85;5.32;;;;;;;;;;5045899;28;20047;-70
2023/06/25 10:23:01;;;;;;;6.03;5.32;;;;;;;;;;5043513;28;20046;-70
2023/06/25 10:25:30;;;;;;;6.75;5.63;;;;;;;;;;5044371;28;20225;-70
2023/06/25 10:28:04;;;;;;;6.18;5.57;;;;;;;;;;5045233;28;20051;-70
2023/06/25 10:30:40;;;;;;;5.85;5.15;;;;;;;;;;5046649;28;20780;-70
2023/06/25 10:33:07;;;;;;;7.32;5.38;;;;;;;;;;5044504;28;20049;-71
2023/06/25 10:35:39;;;;;;;6.95;5.53;;;;;;;;;;5041487;28;20058;-71
2023/06/25 10:38:05;;;;;;;6.45;5.20;;;;;;;;;;5043396;28;20500;-71
2023/06/25 10:40:35;;;;;;;7.57;5.53;;;;;;;;;;5043685;28;20122;-71
2023/06/25 10:43:01;;;;;;;9.02;5.90;;;;;;;;;;5041903;28;20052;-71
2023/06/25 10:45:27;;;;;;;8.73;5.63;;;;;;;;;;5043674;28;20040;-71
2023/06/25 10:48:05;;;;;;;7.20;5.53;;;29.60;99.90;;;;;;5043651;28;20036;-70
2023/06/25 10:50:32;;;;;;;7.55;6.07;;;;;;;;;;5042929;28;20171;-71
2023/06/25 10:52:58;;;;;;;6.53;5.82;;;;;;;;;;5045445;28;20136;-68
2023/06/25 10:55:28;;;;;;;8.90;5.88;;;;;;;;;;5052479;28;20067;-71
2023/06/25 10:57:54;;;;;;;11.48;6.63;;;;;;;;;;5028595;28;20067;-70
2023/06/25 11:00:25;;;;;;;6.00;5.40;;;30.20;99.90;;;;;;5044629;28;20453;-70
2023/06/25 11:02:52;;;;;;;8.75;6.43;;;;;;;;;;5045943;28;20036;-70
2023/06/25 11:05:19;;;;;;;6.40;5.82;;;;;;;;;;5030046;28;20071;-71
2023/06/25 11:07:45;;;;;;;6.55;5.50;;;;;;;;;;5044942;28;20075;-70
2023/06/25 11:10:13;;;;;;;5.47;4.85;;;;;;;;;;5042777;28;20049;-69
2023/06/25 11:12:39;;;;;;;4.95;4.45;;;;;;;;;;5043841;28;20106;-70
2023/06/25 11:15:05;;;;;;;8.77;5.38;;;;;;;;;;5044439;28;20059;-70
2023/06/25 11:17:31;;;;;;;6.28;5.00;;;;;;;;;;5046984;28;20308;-70
2023/06/25 11:19:57;;;;;;;4.68;4.28;;;;;;;;;;5046595;28;20044;-71
2023/06/25 11:22:26;;;;;;;4.93;4.43;;;;;;;;;;5045629;28;20036;-70
2023/06/25 11:24:52;;;;;;;5.22;4.70;;;;;;;;;;5044671;28;20118;-70
2023/06/25 11:27:25;;;;;;;6.18;4.25;;;31.20;99.90;;;;;;5045314;28;20183;-70
2023/06/25 11:29:53;;;;;;;4.85;4.28;;;;;;;;;;5045406;28;20040;-71
2023/06/25 11:32:23;;;;;;;8.10;4.10;;;;;;;;;;5043952;28;20055;-70
2023/06/25 11:34:49;;;;;;;5.63;4.43;;;;;;;;;;5045716;28;20036;-70
2023/06/25 11:37:18;;;;;;;6.65;4.57;;;;;;;;;;5043146;28;20128;-70
2023/06/25 11:39:44;;;;;;;4.68;3.92;;;;;;;;;;5048393;28;20041;-71
2023/06/25 11:42:12;;;;;;;4.43;4.03;;;;;;;;;;5049346;28;20047;-70
2023/06/25 11:44:38;;;;;;;4.43;4.00;;;;;;;;;;5049662;28;20036;-70
2023/06/25 11:47:04;;;;;;;4.30;3.90;;;;;;;;;;5048852;28;20116;-70
2023/06/25 11:49:30;;;;;;;8.15;4.75;;;;;;;;;;5051328;28;20672;-71
2023/06/25 11:51:58;;;;;;;5.53;4.60;;;;;;;;;;5053445;28;20040;-70
2023/06/25 11:54:24;;;;;;;5.38;4.35;;;32.70;99.90;;;;;;5055073;28;20727;-70
2023/06/25 11:56:50;;;;;;;6.50;4.07;;;;;;;;;;5048978;28;20080;-69
2023/06/25 11:59:16;;;;;;;5.35;3.78;;;;;;;;;;5043752;28;20041;-70
2023/06/25 12:01:42;;;;;;;5.22;3.97;;;;;;;;;;5048064;28;21844;-70
2023/06/25 12:04:09;;;;;;;5.38;3.70;;;;;;;;;;5043532;28;20119;-70
2023/06/25 12:06:35;;;;;;;4.65;3.90;;;;;;;;;;5049082;28;20080;-70
2023/06/25 12:09:03;;;;;;;4.07;3.67;;;;;;;;;;5049757;28;20436;-70
2023/06/25 12:11:29;;;;;;;4.68;3.08;;;;;;;;;;5048789;28;20285;-71
2023/06/25 12:13:55;;;;;;;4.20;3.70;;;;;;;;;;5048153;28;20036;-71
2023/06/25 12:16:21;;;;;;;4.72;3.80;;;;;;;;;;5046124;28;20038;-70
2023/06/25 12:18:47;;;;;;;6.05;4.57;;;;;;;;;;5047568;28;20078;-71
2023/06/25 12:21:13;;;;;;;4.22;3.67;;;;;;;;;;5047979;28;20045;-70
2023/06/25 12:23:39;;;;;;;6.75;4.25;;;;;;;;;;5048995;28;20163;-70
2023/06/25 12:26:05;;;;;;;4.47;4.00;;;;;;;;;;5049380;28;20488;-70
2023/06/25 12:28:31;;;;;;;4.63;3.90;;;;;;;;;;5051440;28;20105;-70
2023/06/25 12:30:57;;;;;;;4.57;4.18;;;33.50;99.90;;;;;;5048133;28;20036;-70
2023/06/25 12:33:24;;;;;;;5.28;4.18;;;;;;;;;;5048918;28;20055;-71
2023/06/25 12:35:50;;;;;;;5.30;4.00;;;;;;;;;;5049150;28;20032;-70
2023/06/25 12:38:16;;;;;;;5.45;3.65;;;;;;;;;;5047579;28;20044;-70
2023/06/25 12:40:42;;;;;;;3.90;3.60;;;;;;;;;;5050285;28;20485;-72
2023/06/25 12:43:08;;;;;;;4.40;4.00;;;;;;;;;;5049738;28;20289;-71
2023/06/25 12:45:34;;;;;;;8.27;3.95;;;;;;;;;;5048693;28;20628;-70
2023/06/25 12:48:00;;;;;;;5.80;3.70;;;;;;;;;;5047612;28;20064;-70
2023/06/25 12:50:26;;;;;;;3.90;3.50;;;;;;;;;;5048294;28;20032;-70
2023/06/25 12:52:52;;;;;;;4.72;4.00;;;;;;;;;;5047417;28;20051;-70
2023/06/25 12:55:18;;;;;;;4.47;3.30;;;;;;;;;;5048444;28;20056;-70
2023/06/25 12:57:44;;;;;;;4.18;3.50;;;;;;;;;;5042660;28;20735;-70
2023/06/25 13:00:11;;;;;;;3.60;3.30;;;;;;;;;;5045725;28;20161;-70
2023/06/25 13:02:37;;;;;;;4.25;3.63;;;;;;;;;;5047320;28;20048;-70
2023/06/25 13:05:03;;;;;;;4.43;3.72;;;;;;;;;;5044343;28;20626;-70
2023/06/25 13:07:29;;;;;;;6.97;3.35;;;;;;;;;;5045342;28;20048;-70
2023/06/25 13:09:55;;;;;;;5.75;3.65;;;;;;;;;;5043869;28;20407;-71
2023/06/25 13:12:21;;;;;;;4.05;3.63;;;;;;;;;;5045761;28;20040;-70
2023/06/25 13:14:48;;;;;;;3.78;3.47;;;;;;;;;;5047254;28;20045;-70
2023/06/25 13:17:14;;;;;;;4.07;3.67;;;;;;;;;;5048610;28;20121;-70
2023/06/25 13:19:41;;;;;;;3.47;3.17;;;;;;;;;;5044535;28;20045;-71
2023/06/25 13:22:07;;;;;;;3.80;3.50;;;;;;;;;;5039288;28;20071;-70
2023/06/25 13:24:33;;;;;;;4.05;3.65;;;;;;;;;;5041943;28;20036;-71
2023/06/25 13:27:01;;;;;;;3.58;3.28;;;;;;;;;;5042066;28;20071;-71
2023/06/25 13:29:28;;;;;;;3.20;2.88;;;;;;;;;;5039935;28;20049;-70
2023/06/25 13:31:54;;;;;;;3.55;3.25;;;;;;;;;;5039275;28;20051;-71
2023/06/25 13:34:21;;;;;;;3.90;3.35;;;;;;;;;;5043212;28;20070;-70
2023/06/25 13:36:47;;;;;;;3.90;3.30;;;;;;;;;;5040796;28;20500;-70
2023/06/25 13:39:13;;;;;;;3.50;3.20;;;;;;;;;;5040089;28;21587;-71
2023/06/25 13:41:39;;;;;;;5.43;3.00;;;;;;;;;;5042361;28;20048;-70
2023/06/25 13:44:05;;;;;;;3.67;3.38;;;;;;;;;;5044264;28;20046;-70
2023/06/25 13:46:31;;;;;;;5.13;3.33;;;;;;;;;;5042859;28;20134;-70
2023/06/25 13:48:57;;;;;;;2.95;2.72;;;;;;;;;;5041537;28;20045;-71
2023/06/25 13:51:23;;;;;;;7.00;3.35;;;;;;;;;;5046454;28;20559;-70
2023/06/25 13:53:49;;;;;;;5.22;3.03;;;;;;;;;;5044686;28;20101;-70
2023/06/25 13:56:15;;;;;;;5.22;3.15;;;;;;;;;;5041819;28;20048;-70
2023/06/25 13:58:41;;;;;;;3.60;3.22;;;;;;;;;;5041779;28;20040;-70
2023/06/25 14:01:07;;;;;;;4.43;3.35;;;;;;;;;;5040342;28;21594;-70
2023/06/25 14:03:34;;;;;;;3.70;3.40;;;;;;;;;;5041500;28;20504;-70
2023/06/25 14:06:00;;;;;;;3.20;2.90;;;;;;;;;;5042772;28;20060;-70
2023/06/25 14:08:26;;;;;;;3.58;3.25;;;;;;;;;;5044841;28;20585;-70
2023/06/25 14:10:52;;;;;;;5.60;3.13;;;;;;;;;;5044249;28;20040;-70
2023/06/25 14:13:20;;;;;;;3.75;3.45;;;;;;;;;;5043550;28;20041;-70
2023/06/25 14:15:46;;;;;;;3.35;3.05;;;;;;;;;;5045522;28;20413;-70
2023/06/25 14:18:12;;;;;;;3.88;3.42;;;;;;;;;;5046519;28;20041;-70
2023/06/25 14:20:38;;;;;;;4.18;3.47;;;;;;;;;;5047081;28;20457;-71
2023/06/25 14:23:05;;;;;;;5.45;3.20;;;;;;;;;;5043905;28;20047;-71
2023/06/25 14:25:31;;;;;;;8.25;3.92;;;;;;;;;;5043732;28;20049;-71